Time;durP1;ratioP1;P1;durP2;ratioP2;P2;SDS_P1;SDS_P2;PMS_P1;PMS_P2;Temp;Humidity;BMP_temperature;BMP_pressure;BME280_temperature;BME280_humidity;BME280_pressure;Samples;Min_cycle;Max_cycle;Signal;HPM_P1;HPM_P2
2022/06/04 00:00:15;;;;;;;15.60;12.87;;;;;;;19.25;93.27;98107.19;4123668;28;20655;-87
2022/06/04 00:02:20;;;;;;;13.50;12.33;;;;;;;19.20;93.17;98119.22;4139597;28;20732;-87
2022/06/04 00:04:46;;;;;;;14.07;12.80;;;;;;;19.14;92.18;98110.13;4128572;28;20730;-87
2022/06/04 00:06:49;;;;;;;13.93;12.70;;;;;;;19.11;93.20;98101.66;4129001;28;20637;-87
2022/06/04 00:08:53;;;;;;;14.73;13.30;;;;;;;19.12;93.76;98104.16;4107650;28;21071;-88
2022/06/04 00:15:39;;;;;;;14.03;12.63;;;;;;;19.11;93.92;98106.94;4122455;28;21181;-87
2022/06/04 00:17:42;;;;;;;14.70;12.70;;;;;;;19.07;92.70;98106.44;4122518;28;20658;-88
2022/06/04 00:20:00;;;;;;;13.90;12.70;;;;;;;19.02;92.74;98108.72;4133095;28;21001;-87
2022/06/04 00:22:04;;;;;;;15.50;14.00;;;;;;;19.02;93.86;98110.56;4112029;28;20770;-88
2022/06/04 00:24:08;;;;;;;16.03;14.53;;;;;;;19.01;93.93;98100.91;4128049;28;20663;-87
2022/06/04 00:26:14;;;;;;;14.20;12.90;;;;;;;19.02;94.29;98102.63;4120626;28;20640;-86
2022/06/04 00:28:19;;;;;;;14.53;13.23;;;;;;;19.03;94.05;98104.25;4110811;28;20706;-87
2022/06/04 00:30:23;;;;;;;14.40;13.10;;;;;;;19.03;94.42;98104.25;4127409;28;20658;-87
2022/06/04 00:32:26;;;;;;;13.90;12.80;;;;;;;19.03;94.38;98105.09;4114731;28;21325;-87
2022/06/04 00:34:29;;;;;;;15.20;14.00;;;;;;;19.01;93.99;98104.41;4123373;28;21186;-87
2022/06/04 00:36:33;;;;;;;15.67;14.27;;;;;;;18.97;92.91;98105.69;4119369;28;20986;-87
2022/06/04 00:38:36;;;;;;;14.53;13.03;;;;;;;18.92;92.56;98117.72;4127546;28;21212;-87
2022/06/04 00:40:46;;;;;;;13.50;12.30;;;;;;;18.81;91.63;98120.63;4125673;28;20642;-87
2022/06/04 00:42:50;;;;;;;13.63;12.40;;;;;;;18.80;92.70;98118.94;4109049;28;20766;-87
2022/06/04 00:45:23;;;;;;;14.63;13.30;;;;;;;18.79;92.21;98117.28;4126119;28;20738;-87
2022/06/04 00:47:28;;;;;;;14.90;13.60;;;;;;;18.76;93.76;98116.78;4120908;28;20636;-87
2022/06/04 00:49:31;;;;;;;14.27;13.00;;;;;;;18.73;92.96;98112.59;4110967;28;20651;-87
2022/06/04 00:51:40;;;;;;;15.03;13.43;;;;;;;18.71;93.98;98109.31;4119244;28;21228;-87
2022/06/04 00:53:43;;;;;;;14.70;13.37;;;;;;;18.65;92.64;98109.91;4136721;28;21036;-87
2022/06/04 00:55:52;;;;;;;13.73;12.43;;;;;;;18.60;92.90;98112.19;4139967;28;20702;-87
2022/06/04 00:58:06;;;;;;;13.97;12.67;;;;;;;18.60;92.95;98114.84;4124145;28;20618;-87
2022/06/04 01:00:10;;;;;;;13.93;12.63;;;;;;;18.63;93.70;98106.59;4134562;28;20645;-87
2022/06/04 01:02:20;;;;;;;13.77;12.40;;;;;;;18.62;93.36;98115.50;4132461;28;21219;-87
2022/06/04 01:04:49;;;;;;;13.27;12.07;;;;;;;18.59;94.03;98117.63;4114191;28;20673;-88
2022/06/04 01:06:58;;;;;;;13.37;12.17;;;;;;;18.58;93.33;98108.91;4107104;28;21237;-87
2022/06/04 01:09:33;;;;;;;13.43;12.23;;;;;;;18.59;92.88;98115.00;4116142;28;20678;-87
2022/06/04 01:14:13;;;;;;;14.20;12.80;;;;;;;18.55;93.78;98109.19;4124454;28;20660;-87
2022/06/04 01:16:19;;;;;;;13.37;12.17;;;;;;;18.53;93.75;98107.69;4131580;28;20644;-87
2022/06/04 01:18:33;;;;;;;13.97;12.67;;;;;;;18.52;93.65;98114.78;4117541;28;20621;-87
2022/06/04 01:20:40;;;;;;;13.23;12.03;;;;;;;18.50;93.40;98110.63;4139581;28;20636;-87
2022/06/04 01:23:04;;;;;;;13.67;12.37;;;;;;;18.48;93.29;98105.50;4140931;28;21191;-87
2022/06/04 01:25:26;;;;;;;13.30;11.90;;;;;;;18.48;93.42;98112.59;4145561;28;20667;-87
2022/06/04 01:27:33;;;;;;;12.97;11.77;;;;;;;18.43;92.62;98115.69;4124596;28;21074;-87
2022/06/04 01:29:39;;;;;;;13.70;12.30;;;;;;;18.40;92.71;98111.69;4113951;28;20669;-87
2022/06/04 01:31:45;;;;;;;13.10;12.03;;;;;;;18.39;92.81;98104.72;4109545;28;21214;-87
2022/06/04 01:33:52;;;;;;;13.70;12.40;;;;;;;18.37;93.42;98104.88;4132170;28;20688;-87
2022/06/04 01:35:58;;;;;;;13.07;11.87;;;;;;;18.31;93.33;98097.59;4124327;28;21033;-87
2022/06/04 01:38:04;;;;;;;13.30;12.10;;;;;;;18.28;93.93;98100.53;4107127;28;20662;-87
2022/06/04 01:42:45;;;;;;;13.00;11.70;;;;;;;18.21;92.58;98096.84;4128606;28;20627;-87
2022/06/04 01:44:50;;;;;;;12.90;11.80;;;;;;;18.16;92.95;98098.25;4108653;28;20634;-87
2022/06/04 01:46:56;;;;;;;12.37;11.37;;;;;;;18.12;92.84;98103.00;4131053;28;20979;-87
2022/06/04 01:49:02;;;;;;;13.60;12.43;;;;;;;18.11;92.68;98108.44;4126450;28;20630;-87
2022/06/04 01:51:06;;;;;;;12.80;11.60;;;;;;;18.13;93.16;98109.97;4124628;28;20724;-87
2022/06/04 01:53:11;;;;;;;13.40;12.20;;;;;;;18.15;93.35;98115.09;4113890;28;20666;-88
2022/06/04 01:55:19;;;;;;;13.50;12.20;;;;;;;18.14;94.21;98118.72;4124746;28;20670;-87
2022/06/04 01:57:25;;;;;;;13.13;11.97;;;;;;;18.13;93.87;98117.03;4129359;28;21180;-87
2022/06/04 01:59:33;;;;;;;12.27;11.27;;;;;;;18.12;93.97;98110.91;4112291;28;20729;-87
2022/06/04 02:01:37;;;;;;;13.83;12.63;;;;;;;18.14;93.73;98113.44;4130123;28;21013;-87
2022/06/04 02:03:43;;;;;;;13.30;12.10;;;;;;;18.12;93.38;98096.91;4101844;28;20646;-87
2022/06/04 02:05:49;;;;;;;13.10;11.80;;;;;;;18.05;92.61;98086.09;4122042;28;20680;-88
2022/06/04 02:07:55;;;;;;;12.80;11.60;;;;;;;18.00;92.48;98087.53;4123140;28;21014;-88
2022/06/04 02:10:03;;;;;;;12.87;11.50;;;;;;;17.92;92.91;98085.63;4127389;28;20658;-88
2022/06/04 02:12:09;;;;;;;12.70;10.97;;;;;;;17.83;91.46;98091.00;4100134;28;20666;-88
2022/06/04 02:14:13;;;;;;;14.37;12.60;;;;;;;17.77;91.33;98094.22;4129532;28;20647;-87
2022/06/04 02:16:21;;;;;;;12.80;11.60;;;;;;;17.74;91.79;98097.16;4139972;28;20653;-88
2022/06/04 02:18:25;;;;;;;14.50;13.00;;;;;;;17.70;91.77;98098.44;4144131;28;20643;-88
2022/06/04 02:20:32;;;;;;;13.47;12.20;;;;;;;17.69;93.41;98102.03;4117170;28;21089;-88
2022/06/04 02:22:35;;;;;;;12.47;11.30;;;;;;;17.71;93.56;98102.75;4114474;28;20672;-88
2022/06/04 02:24:38;;;;;;;14.37;12.97;;;;;;;17.74;94.35;98099.81;4145672;28;21196;-88
2022/06/04 02:26:42;;;;;;;14.37;13.03;;;;;;;17.76;94.73;98100.47;4124066;28;20620;-87
2022/06/04 02:28:45;;;;;;;12.97;11.67;;;;;;;17.74;94.00;98102.44;4137980;28;20668;-88
2022/06/04 02:31:03;;;;;;;15.17;13.63;;;;;;;17.71;94.11;98100.09;4129237;28;20639;-88
2022/06/04 02:33:14;;;;;;;13.37;12.07;;;;;;;17.69;93.93;98096.75;4113507;28;20736;-88
2022/06/04 02:35:21;;;;;;;13.63;12.07;;;;;;;17.68;93.44;98094.25;4115809;28;20749;-87
2022/06/04 02:37:28;;;;;;;13.03;11.70;;;;;;;17.63;93.43;98093.88;4106368;28;21174;-88
2022/06/04 02:39:34;;;;;;;13.50;12.17;;;;;;;17.58;92.56;98083.78;4134070;28;20739;-88
2022/06/04 02:41:42;;;;;;;12.60;11.30;;;;;;;17.56;92.92;98091.03;4110979;28;20637;-87
2022/06/04 02:43:49;;;;;;;11.87;10.77;;;;;;;17.53;92.65;98088.69;4140075;28;20666;-87
2022/06/04 02:45:58;;;;;;;12.77;11.37;;;;;;;17.47;92.41;98096.34;4124639;28;20625;-88
2022/06/04 02:48:03;;;;;;;13.07;11.97;;;;;;;17.44;92.71;98098.44;4115145;28;21013;-87
2022/06/04 02:50:13;;;;;;;12.20;11.10;;;;;;;17.44;92.44;98101.06;4134780;28;20626;-87
2022/06/04 02:52:18;;;;;;;13.00;11.87;;;;;;;17.43;92.70;98099.44;4151072;28;20613;-87
2022/06/04 02:54:25;;;;;;;12.63;11.53;;;;;;;17.43;93.50;98099.44;4124427;28;21235;-87
2022/06/04 02:56:32;;;;;;;12.33;11.20;;;;;;;17.46;93.69;98104.41;4143259;28;20679;-87
2022/06/04 02:58:35;;;;;;;13.93;11.73;;;;;;;17.47;94.38;98102.44;4128778;28;20960;-87
2022/06/04 03:00:39;;;;;;;13.13;12.00;;;;;;;17.50;94.75;98109.25;4127102;28;20625;-87
2022/06/04 03:02:42;;;;;;;13.30;11.90;;;;;;;17.50;94.39;98111.88;4123461;28;20650;-88
2022/06/04 03:04:49;;;;;;;12.60;11.40;;;;;;;17.49;94.53;98115.50;4134607;28;20686;-87
2022/06/04 03:06:53;;;;;;;13.00;11.70;;;;;;;17.47;93.63;98122.72;4126408;28;20628;-87
2022/06/04 03:08:57;;;;;;;11.70;10.60;;;;;;;17.45;93.84;98119.38;4123282;28;20639;-88
2022/06/04 03:11:00;;;;;;;12.97;11.67;;;;;;;17.42;94.23;98116.22;4112894;28;20633;-88
2022/06/04 03:13:04;;;;;;;12.50;11.20;;;;;;;17.38;93.89;98107.78;4129982;28;20988;-88
2022/06/04 03:15:09;;;;;;;14.30;11.77;;;;;;;17.38;93.31;98099.03;4138098;28;21217;-87
2022/06/04 03:17:13;;;;;;;11.67;10.57;;;;;;;17.38;94.59;98109.56;4125628;28;20629;-88
2022/06/04 03:19:16;;;;;;;12.47;11.30;;;;;;;17.37;93.69;98103.47;4103107;28;20655;-88
2022/06/04 03:21:19;;;;;;;12.10;11.00;;;;;;;17.37;94.03;98102.66;4137832;28;20656;-87
2022/06/04 03:23:24;;;;;;;11.73;10.73;;;;;;;17.37;94.03;98108.75;4122702;28;21062;-87
2022/06/04 03:25:45;;;;;;;12.83;11.63;;;;;;;17.35;93.45;98115.97;4119375;28;21224;-88
2022/06/04 03:27:48;;;;;;;12.13;10.93;;;;;;;17.34;93.83;98116.13;4139075;28;21308;-88
2022/06/04 03:29:52;;;;;;;13.17;11.90;;;;;;;17.35;93.50;98104.59;4126116;28;21198;-88
2022/06/04 03:31:55;;;;;;;12.57;11.37;;;;;;;17.30;94.07;98098.94;4124612;28;21019;-87
2022/06/04 03:33:58;;;;;;;12.10;10.90;;;;;;;17.30;94.04;98102.38;4113733;28;20660;-88
2022/06/04 03:36:05;;;;;;;12.37;11.17;;;;;;;17.32;94.57;98108.38;4144083;28;21240;-87
2022/06/04 03:38:08;;;;;;;13.10;11.80;;;;;;;17.36;95.11;98103.63;4103087;28;21234;-88
2022/06/04 03:40:13;;;;;;;12.10;11.00;;;;;;;17.40;94.37;98099.72;4120044;28;20641;-87
2022/06/04 03:42:17;;;;;;;11.70;10.60;;;;;;;17.42;93.98;98093.31;4139018;28;20646;-87
2022/06/04 03:44:20;;;;;;;12.83;11.63;;;;;;;17.45;93.89;98089.56;4109892;28;20629;-87
2022/06/04 03:46:24;;;;;;;12.00;10.90;;;;;;;17.40;93.59;98087.34;4109226;28;20645;-88
2022/06/04 03:48:28;;;;;;;11.87;10.87;;;;;;;17.37;94.09;98094.75;4104814;28;21005;-88
2022/06/04 03:50:32;;;;;;;12.00;10.80;;;;;;;17.36;93.71;98098.34;4120122;28;20634;-88
2022/06/04 03:52:41;;;;;;;12.70;11.47;;;;;;;17.38;93.52;98088.47;4136029;28;20647;-87
2022/06/04 03:54:53;;;;;;;10.77;9.83;;;;;;;17.42;93.62;98097.75;4138309;28;20656;-87
2022/06/04 03:59:14;;;;;;;12.23;10.97;;;;;;;17.54;94.38;98107.97;4127852;28;20631;-88
2022/06/04 04:01:20;;;;;;;11.90;10.70;;;;;;;17.60;94.09;98118.75;4126081;28;20628;-87
2022/06/04 04:03:23;;;;;;;13.03;11.83;;;;;;;17.65;94.90;98132.34;4113679;28;20661;-87
2022/06/04 04:05:30;;;;;;;13.10;11.87;;;;;;;17.70;94.32;98139.81;4136281;28;21206;-87
2022/06/04 04:07:34;;;;;;;11.83;10.83;;;;;;;17.74;94.75;98135.88;4126578;28;21013;-88
2022/06/04 04:09:39;;;;;;;12.03;10.90;;;;;;;17.79;94.09;98138.94;4105883;28;20731;-87
2022/06/04 04:11:42;;;;;;;12.07;11.00;;;;;;;17.84;94.20;98136.69;4125845;28;20668;-88
2022/06/04 04:13:47;;;;;;;12.53;11.33;;;;;;;17.86;94.30;98153.19;4123522;28;20689;-88
2022/06/04 04:16:12;;;;;;;11.70;10.60;;;;;;;17.89;94.25;98139.69;4138406;28;20663;-88
2022/06/04 04:18:16;;;;;;;12.30;11.00;;;;;;;17.87;93.04;98147.75;4123134;28;21201;-88
2022/06/04 04:20:21;;;;;;;14.83;10.80;;;;;;;17.84;93.31;98136.69;4138526;28;20671;-88
2022/06/04 04:22:24;;;;;;;10.93;9.77;;;;;;;17.81;92.62;98143.06;4111610;28;21275;-87
2022/06/04 04:24:27;;;;;;;11.73;10.53;;;;;;;17.81;92.77;98140.44;4106406;28;20622;-87
2022/06/04 04:26:30;;;;;;;11.60;10.50;;;;;;;17.85;92.86;98155.00;4130616;28;20727;-87
2022/06/04 04:28:34;;;;;;;11.87;10.57;;;;;;;17.87;92.97;98152.22;4101600;28;21274;-87
2022/06/04 04:30:38;;;;;;;11.80;10.60;;;;;;;17.89;92.96;98147.63;4128472;28;20635;-87
2022/06/04 04:32:42;;;;;;;12.73;11.57;;;;;;;17.92;92.73;98149.97;4130725;28;20630;-88
2022/06/04 04:34:45;;;;;;;12.57;11.27;;;;;;;17.92;92.70;98148.16;4129143;28;20668;-87
2022/06/04 04:36:48;;;;;;;12.90;11.40;;;;;;;17.93;93.04;98147.16;4113471;28;20664;-87
2022/06/04 04:38:53;;;;;;;13.20;12.00;;;;;;;17.97;92.74;98140.63;4116558;28;21050;-88
2022/06/04 04:40:56;;;;;;;12.87;11.57;;;;;;;18.02;92.88;98136.53;4145720;28;20630;-87
2022/06/04 04:43:00;;;;;;;13.70;10.47;;;;;;;18.07;93.71;98134.31;4128931;28;20637;-88
2022/06/04 04:45:07;;;;;;;12.53;11.43;;;;;;;18.14;92.94;98132.75;4129623;28;20628;-87
2022/06/04 04:47:11;;;;;;;12.47;11.27;;;;;;;18.21;92.47;98138.28;4128530;28;20641;-87
2022/06/04 04:49:14;;;;;;;12.93;11.63;;;;;;;18.26;93.23;98128.06;4132993;28;20672;-88
2022/06/04 04:51:20;;;;;;;12.20;11.10;;;;;;;18.32;93.56;98122.19;4129026;28;20652;-88
2022/06/04 04:53:24;;;;;;;13.07;11.90;;;;;;;18.39;93.24;98112.66;4125169;28;20626;-87
2022/06/04 04:55:27;;;;;;;12.00;11.00;;;;;;;18.44;93.41;98104.13;4109556;28;20770;-88
2022/06/04 04:57:30;;;;;;;11.47;10.37;;;;;;;18.47;93.60;98103.00;4123300;28;21195;-87
2022/06/04 04:59:33;;;;;;;12.03;10.67;;;;;;;18.48;92.86;98113.41;4123614;28;20721;-88
2022/06/04 05:01:36;;;;;;;12.60;11.40;;;;;;;18.49;93.34;98111.59;4116076;28;20748;-87
2022/06/04 05:03:44;;;;;;;10.93;9.93;;;;;;;18.54;93.88;98115.44;4146793;28;20680;-88
2022/06/04 05:05:57;;;;;;;12.53;11.23;;;;;;;18.60;93.84;98116.66;4138726;28;20635;-88
2022/06/04 05:08:01;;;;;;;10.80;9.80;;;;;;;18.64;93.64;98129.41;4116306;28;21303;-88
2022/06/04 05:10:05;;;;;;;12.67;10.23;;;;;;;18.70;93.85;98123.53;4122858;28;20633;-88
2022/06/04 05:12:09;;;;;;;11.90;10.80;;;;;;;18.74;93.91;98119.56;4126758;28;20629;-88
2022/06/04 05:14:13;;;;;;;12.00;10.90;;;;;;;18.83;93.02;98112.53;4132825;28;20629;-88
2022/06/04 05:16:16;;;;;;;12.10;11.00;;;;;;;18.87;93.44;98113.88;4126497;28;20797;-88
2022/06/04 05:18:20;;;;;;;13.17;10.97;;;;;;;18.94;92.64;98115.72;4122789;28;20641;-88
2022/06/04 05:20:24;;;;;;;12.37;11.07;;;;;;;19.04;92.55;98130.53;4142315;28;21192;-88
2022/06/04 05:22:27;;;;;;;12.80;11.60;;;;;;;19.15;93.79;98137.38;4137765;28;20672;-87
2022/06/04 05:24:33;;;;;;;13.03;11.73;;;;;;;19.31;92.92;98148.91;4125524;28;20670;-88
2022/06/04 05:26:36;;;;;;;12.03;10.77;;;;;;;19.49;92.46;98144.38;4107644;28;20627;-88
2022/06/04 05:28:39;;;;;;;12.70;11.40;;;;;;;19.68;93.53;98144.09;4140601;28;21116;-88
2022/06/04 05:30:42;;;;;;;12.90;11.77;;;;;;;19.90;95.03;98161.09;4141408;28;21027;-88
2022/06/04 05:32:46;;;;;;;13.23;12.13;;;;;;;20.03;92.59;98158.84;4127755;28;20640;-88
2022/06/04 05:34:49;;;;;;;12.80;11.53;;;;;;;20.07;91.86;98173.44;4108577;28;20664;-88
2022/06/04 05:36:55;;;;;;;11.70;10.70;;;;;;;20.11;92.05;98171.28;4137523;28;20626;-88
2022/06/04 05:38:58;;;;;;;13.63;11.80;;;;;;;20.14;91.23;98173.59;4124648;28;20632;-88
2022/06/04 05:41:02;;;;;;;12.23;11.10;;;;;;;20.17;93.23;98167.97;4139653;28;20645;-88
2022/06/04 05:43:06;;;;;;;11.83;10.87;;;;;;;20.20;93.04;98179.06;4132883;28;20626;-88
2022/06/04 05:45:10;;;;;;;13.13;10.97;;;;;;;20.24;92.94;98174.31;4114924;28;20708;-88
2022/06/04 05:47:13;;;;;;;13.97;12.73;;;;;;;20.27;93.61;98166.84;4125484;28;20615;-88
2022/06/04 05:49:17;;;;;;;13.33;11.97;;;;;;;20.28;93.28;98170.31;4123953;28;20660;-88
2022/06/04 05:51:22;;;;;;;13.00;11.80;;;;;;;20.29;93.42;98169.34;4135510;28;20642;-88
2022/06/04 05:53:26;;;;;;;13.67;12.33;;;;;;;20.28;93.20;98184.38;4130445;28;20631;-88
2022/06/04 05:55:30;;;;;;;13.40;12.20;;;;;;;20.28;92.88;98181.72;4128223;28;20701;-88
2022/06/04 05:57:33;;;;;;;13.63;12.33;;;;;;;20.28;92.22;98183.56;4123822;28;20698;-88
2022/06/04 05:59:36;;;;;;;13.27;12.13;;;;;;;20.28;92.40;98187.03;4132075;28;20678;-88
2022/06/04 06:01:40;;;;;;;13.17;11.97;;;;;;;20.32;92.73;98177.78;4125696;28;20645;-88
2022/06/04 06:03:47;;;;;;;13.50;12.10;;;;;;;20.41;93.00;98188.22;4119491;28;20646;-88
2022/06/04 06:05:50;;;;;;;14.20;12.90;;;;;;;20.46;93.82;98191.25;4115276;28;20628;-88
2022/06/04 06:07:53;;;;;;;13.93;12.63;;;;;;;20.51;93.08;98194.22;4131333;28;20681;-88
2022/06/04 06:09:58;;;;;;;13.50;12.30;;;;;;;20.51;92.71;98190.75;4143158;28;20724;-88
2022/06/04 06:12:01;;;;;;;13.40;12.30;;;;;;;20.52;92.41;98189.75;4130895;28;20660;-88
2022/06/04 06:14:07;;;;;;;14.73;13.23;;;;;;;20.55;93.69;98200.00;4139349;28;20665;-88
2022/06/04 06:16:13;;;;;;;13.47;12.17;;;;;;;20.54;92.99;98196.53;4115809;28;20660;-88
2022/06/04 06:18:16;;;;;;;13.07;11.87;;;;;;;20.51;91.40;98204.00;4107972;28;20677;-88
2022/06/04 06:20:20;;;;;;;13.73;11.83;;;;;;;20.42;91.54;98205.78;4127995;28;20636;-88
2022/06/04 06:22:23;;;;;;;13.50;12.20;;;;;;;20.39;93.16;98208.78;4114298;28;20696;-88
2022/06/04 06:24:26;;;;;;;13.20;12.00;;;;;;;20.41;92.81;98220.03;4130982;28;21104;-88
2022/06/04 06:26:42;;;;;;;13.40;12.10;;;;;;;20.43;93.92;98231.31;4125208;28;20700;-88
2022/06/04 06:28:45;;;;;;;12.60;11.43;;;;;;;20.42;93.77;98255.34;4124548;28;20993;-88
2022/06/04 06:30:49;;;;;;;12.60;11.57;;;;;;;20.29;94.73;98281.44;4124981;28;20627;-85
2022/06/04 06:32:53;;;;;;;13.60;12.40;;;;;;;20.03;94.87;98293.91;4143130;28;20603;-86
2022/06/04 06:34:57;;;;;;;13.27;12.17;;;;;;;19.88;96.98;98316.66;4134796;28;20652;-85
2022/06/04 06:37:18;;;;;;;13.00;11.80;;;;;;;19.75;97.23;98320.69;4147837;28;20626;-86
2022/06/04 06:39:22;;;;;;;12.13;10.80;;;;;;;19.72;95.10;98336.88;4126624;28;21069;-85
2022/06/04 06:41:26;;;;;;;14.10;12.70;;;;;;;19.65;97.05;98335.00;4127208;28;20720;-85
2022/06/04 06:43:33;;;;;;;13.43;12.10;;;;;;;19.64;95.64;98342.13;4115674;28;20719;-85
2022/06/04 06:45:37;;;;;;;13.33;11.93;;;;;;;19.59;96.46;98348.84;4139966;28;21207;-86
2022/06/04 06:47:43;;;;;;;13.70;12.40;;;;;;;19.53;97.91;98350.31;4139564;28;21112;-85
2022/06/04 06:49:46;;;;;;;13.60;12.40;;;;;;;19.55;96.80;98347.53;4138354;28;20623;-85
2022/06/04 06:51:51;;;;;;;13.70;12.40;;;;;;;19.57;97.05;98358.78;4137055;28;20630;-85
2022/06/04 06:53:55;;;;;;;14.33;12.90;;;;;;;19.58;97.37;98357.81;4142640;28;20662;-85
2022/06/04 06:55:59;;;;;;;19.47;13.00;;;;;;;19.55;98.08;98361.56;4140616;28;20670;-86
2022/06/04 06:58:06;;;;;;;14.23;12.83;;;;;;;19.57;98.95;98362.25;4122688;28;20635;-85
2022/06/04 07:00:12;;;;;;;15.93;14.43;;;;;;;19.59;99.87;98360.28;4124637;28;21103;-86
2022/06/04 07:02:34;;;;;;;13.77;12.30;;;;;;;19.57;99.25;98359.59;4126219;28;21034;-85
2022/06/04 07:04:37;;;;;;;14.40;12.90;;;;;;;19.50;100.00;98358.56;4108529;28;20716;-86
2022/06/04 07:06:43;;;;;;;16.63;13.57;;;;;;;19.51;100.00;98348.78;4130979;28;21003;-86
2022/06/04 07:08:46;;;;;;;14.17;12.47;;;;;;;19.54;100.00;98338.72;4131082;28;20654;-86
2022/06/04 07:10:49;;;;;;;15.33;11.80;;;;;;;19.59;100.00;98340.91;4105142;28;21071;-86
2022/06/04 07:12:52;;;;;;;14.30;12.37;;;;;;;19.65;100.00;98327.06;4124203;28;20637;-86
2022/06/04 07:14:58;;;;;;;13.67;12.27;;;;;;;19.70;100.00;98316.88;4108768;28;21000;-86
2022/06/04 07:17:05;;;;;;;14.07;12.57;;;;;;;19.74;100.00;98303.16;4127889;28;20667;-86
2022/06/04 07:19:10;;;;;;;14.33;12.63;;;;;;;19.80;100.00;98278.72;4133393;28;20613;-85
2022/06/04 07:21:13;;;;;;;17.37;13.70;;;;;;;19.74;100.00;98265.25;4122186;28;20701;-85
2022/06/04 07:23:18;;;;;;;14.57;12.97;;;;;;;19.62;100.00;98256.75;4127190;28;20659;-85
2022/06/04 07:25:22;;;;;;;16.93;14.07;;;;;;;19.64;100.00;98249.47;4146477;28;21095;-85
2022/06/04 07:27:25;;;;;;;14.80;13.40;;;;;;;19.71;100.00;98239.09;4126545;28;20617;-85
2022/06/04 07:29:28;;;;;;;14.73;13.27;;;;;;;19.77;100.00;98223.44;4139227;28;21238;-85
2022/06/04 07:31:31;;;;;;;14.27;12.87;;;;;;;19.85;100.00;98205.75;4114135;28;20628;-85
2022/06/04 07:33:36;;;;;;;15.40;13.63;;;;;;;19.85;100.00;98176.63;4143129;28;20639;-85
2022/06/04 07:35:46;;;;;;;14.47;13.07;;;;;;;19.84;100.00;98168.84;4125253;28;21308;-85
2022/06/04 07:37:49;;;;;;;16.47;14.73;;;;;;;19.89;100.00;98200.97;4139822;28;20629;-85
2022/06/04 07:39:53;;;;;;;16.73;14.93;;;;;;;20.01;100.00;98237.63;4132967;28;21214;-85
2022/06/04 07:41:56;;;;;;;17.63;15.93;;;;;;;20.16;100.00;98230.75;4100769;28;21204;-85
2022/06/04 07:44:00;;;;;;;16.43;14.93;;;;;;;20.37;100.00;98233.75;4130032;28;21249;-85
2022/06/04 07:46:03;;;;;;;17.90;16.00;;;;;;;20.63;100.00;98239.81;4124007;28;21186;-85
2022/06/04 07:48:07;;;;;;;16.50;14.90;;;;;;;20.84;100.00;98244.50;4120380;28;20663;-85
2022/06/04 07:50:13;;;;;;;16.37;14.70;;;;;;;21.00;100.00;98260.44;4126275;28;20647;-86
2022/06/04 07:52:16;;;;;;;16.67;15.07;;;;;;;21.23;100.00;98261.44;4134620;28;20671;-85
2022/06/04 07:54:20;;;;;;;17.47;15.67;;;;;;;21.55;100.00;98254.31;4113136;28;20716;-85
2022/06/04 07:56:26;;;;;;;16.37;14.77;;;;;;;21.77;99.06;98240.31;4104820;28;20653;-85
2022/06/04 07:58:29;;;;;;;15.63;14.27;;;;;;;21.90;98.55;98245.91;4132251;28;20628;-86
2022/06/04 08:00:37;;;;;;;16.13;14.50;;;;;;;22.11;97.38;98246.19;4124314;28;20644;-86
2022/06/04 08:02:42;;;;;;;15.50;14.00;;;;;;;;;;4113552;28;21221;-86
2022/06/04 08:04:55;;;;;;;15.07;13.63;;;;;;;22.28;95.18;98236.16;4107587;28;20646;-86
2022/06/04 08:07:01;;;;;;;15.43;14.03;;;;;;;22.29;95.50;98237.00;4137831;28;20625;-85
2022/06/04 08:09:04;;;;;;;15.27;13.87;;;;;;;22.26;93.70;98240.81;4115126;28;21450;-86
2022/06/04 08:13:29;;;;;;;14.60;13.17;;;;;;;22.38;92.13;98225.31;4131416;28;20639;-86
2022/06/04 08:15:36;;;;;;;15.10;13.80;;;;;;;22.52;92.84;98212.13;4141515;28;20638;-86
2022/06/04 08:17:39;;;;;;;15.37;13.93;;;;;;;22.86;91.15;98215.19;4113652;28;20656;-86
2022/06/04 08:19:42;;;;;;;16.00;14.50;;;;;;;23.29;94.27;98223.38;4122838;28;20721;-87
2022/06/04 08:21:56;;;;;;;15.07;13.60;;;;;;;23.72;92.33;98221.63;4119055;28;20651;-86
2022/06/04 08:24:22;;;;;;;13.40;12.30;;;;;;;23.74;87.60;98214.25;4136105;28;20648;-87
2022/06/04 08:26:25;;;;;;;14.80;13.50;;;;;;;23.81;88.53;98222.34;4122082;28;20644;-86
2022/06/04 08:28:28;;;;;;;15.70;14.27;;;;;;;24.00;89.03;98227.16;4108134;28;20723;-86
2022/06/04 08:30:31;;;;;;;15.20;13.57;;;;;;;24.33;87.28;98240.75;4110946;28;20739;-86
2022/06/04 08:32:35;;;;;;;14.63;13.23;;;;;;;24.87;88.66;98250.81;4129935;28;20630;-86
2022/06/04 08:34:38;;;;;;;14.50;13.07;;;;;;;25.40;87.59;98253.00;4142572;28;20634;-86
2022/06/04 08:36:42;;;;;;;14.87;13.37;;;;;;;25.68;86.58;98254.72;4119343;28;20666;-87
2022/06/04 08:38:46;;;;;;;14.10;12.63;;;;;;;25.77;84.73;98264.22;4116168;28;21110;-87
2022/06/04 08:40:52;;;;;;;15.17;13.70;;;;;;;25.68;82.67;98265.41;4130106;28;21199;-86
2022/06/04 08:43:13;;;;;;;14.50;13.30;;;;;;;25.85;83.92;98272.09;4115161;28;20673;-86
2022/06/04 08:45:16;;;;;;;15.80;14.40;;;;;;;25.54;81.35;98271.63;4114045;28;20629;-87
2022/06/04 08:47:24;;;;;;;15.10;13.80;;;;;;;25.29;82.24;98273.06;4106864;28;21282;-86
2022/06/04 08:49:30;;;;;;;16.00;14.20;;;;;;;25.18;85.61;98270.91;4133361;28;20640;-86
2022/06/04 08:51:34;;;;;;;14.80;13.20;;;;;;;25.19;85.64;98263.69;4105103;28;20635;-86
2022/06/04 08:53:37;;;;;;;15.33;13.93;;;;;;;25.68;86.66;98273.44;4128714;28;21008;-86
2022/06/04 08:58:15;;;;;;;15.87;14.40;;;;;;;25.93;84.65;98288.81;4123378;28;20648;-86
2022/06/04 09:00:20;;;;;;;15.83;14.43;;;;;;;25.68;83.52;98284.13;4105539;28;20635;-86
2022/06/04 09:02:33;;;;;;;16.40;14.90;;;;;;;25.85;84.19;98288.16;4126214;28;20617;-86
2022/06/04 09:05:03;;;;;;;17.13;15.50;;;;;;;25.77;83.62;98280.25;4129924;28;20642;-86
2022/06/04 09:07:11;;;;;;;17.80;16.10;;;;;;;25.57;83.85;98284.59;4137521;28;20638;-86
2022/06/04 09:09:18;;;;;;;17.90;16.20;;;;;;;25.75;83.55;98282.31;4117960;28;20649;-87
2022/06/04 09:11:23;;;;;;;17.20;15.60;;;;;;;26.12;85.03;98286.25;4125231;28;20733;-87
2022/06/04 09:13:31;;;;;;;18.13;16.50;;;;;;;26.44;84.30;98291.00;4143436;28;20623;-86
2022/06/04 09:15:37;;;;;;;18.13;16.47;;;;;;;26.74;84.28;98292.38;4120970;28;21082;-86
2022/06/04 09:17:47;;;;;;;17.87;16.37;;;;;;;26.55;81.27;98294.97;4132312;28;20660;-87
2022/06/04 09:19:55;;;;;;;17.30;15.70;;;;;;;26.26;81.79;98297.88;4144334;28;20676;-87
2022/06/04 09:21:59;;;;;;;18.23;16.70;;;;;;;26.25;81.32;98294.38;4124385;28;21252;-87
2022/06/04 09:24:02;;;;;;;19.13;17.53;;;;;;;26.20;82.58;98294.13;4128147;28;20664;-86
2022/06/04 09:26:08;;;;;;;17.60;16.10;;;;;;;26.06;78.65;98302.28;4111597;28;20659;-86
2022/06/04 09:28:22;;;;;;;17.43;16.03;;;;;;;26.01;80.13;98298.53;4129270;28;20662;-87
2022/06/04 09:30:30;;;;;;;17.93;16.43;;;;;;;25.92;78.45;98305.91;4132090;28;21234;-87
2022/06/04 09:32:45;;;;;;;18.60;16.70;;;;;;;25.83;80.09;98306.22;4136767;28;20668;-87
2022/06/04 09:34:50;;;;;;;19.33;17.40;;;;;;;25.85;81.42;98304.19;4123690;28;21221;-87
2022/06/04 09:36:53;;;;;;;18.73;17.10;;;;;;;25.89;81.14;98302.75;4104867;28;20623;-87
2022/06/04 09:39:00;;;;;;;16.30;14.83;;;;;;;25.91;81.50;98295.41;4115455;28;20706;-87
2022/06/04 09:41:05;;;;;;;18.00;16.40;;;;;;;25.88;81.49;98299.28;4140440;28;20733;-87
2022/06/04 09:43:14;;;;;;;17.37;15.77;;;;;;;25.96;83.04;98300.97;4123293;28;20619;-87
2022/06/04 09:45:39;;;;;;;17.27;15.80;;;;;;;26.13;81.33;98309.34;4131838;28;20767;-87
2022/06/04 09:47:45;;;;;;;15.33;13.83;;;;;;;26.11;81.31;98308.69;4114583;28;20660;-87
2022/06/04 09:49:54;;;;;;;15.00;13.70;;;;;;;26.08;81.10;98315.47;4107779;28;20634;-87
2022/06/04 09:51:57;;;;;;;13.93;12.73;;;;;;;26.01;80.78;98309.22;4114792;28;20672;-87
2022/06/04 09:54:06;;;;;;;15.63;14.10;;;;;;;26.02;81.47;98301.00;4113379;28;20695;-87
2022/06/04 09:56:11;;;;;;;15.60;14.30;;;;;;;26.00;81.12;98302.25;4113978;28;21193;-87